Time;durP1;ratioP1;P1;durP2;ratioP2;P2;SDS_P1;SDS_P2;PMS_P1;PMS_P2;Temp;Humidity;BMP_temperature;BMP_pressure;BME280_temperature;BME280_humidity;BME280_pressure;Samples;Min_cycle;Max_cycle;Signal;HPM_P1;HPM_P2
2023/09/27 00:02:27;;;;;;;52.63;4.20;;;;;;;13.71;100.00;101987.75;5141156;28;20035;-72
2023/09/27 00:04:58;;;;;;;9.07;3.50;;;;;;;13.66;100.00;101987.38;5142359;28;20077;-72
2023/09/27 00:07:28;;;;;;;5.75;4.00;;;;;;;13.65;100.00;101992.91;5137734;28;20042;-71
2023/09/27 00:09:59;;;;;;;8.98;5.43;;;;;;;13.62;100.00;101983.31;5142069;28;20404;-70
2023/09/27 00:12:30;;;;;;;8.18;4.82;;;;;;;13.61;100.00;101976.22;5132803;28;20034;-70
2023/09/27 00:15:01;;;;;;;4.47;3.63;;;;;;;13.61;100.00;101983.47;5139909;28;20485;-70
2023/09/27 00:17:32;;;;;;;6.35;4.13;;;;;;;13.60;100.00;101985.31;5136834;28;20106;-71
2023/09/27 00:20:03;;;;;;;4.82;3.60;;;;;;;13.58;100.00;101971.16;5136505;28;20030;-70
2023/09/27 00:22:34;;;;;;;3.10;2.70;;;;;;;13.58;100.00;101983.78;5141545;28;20027;-70
2023/09/27 00:25:07;;;;;;;4.07;2.80;;;;;;;13.54;100.00;101994.03;5138526;28;20027;-70
2023/09/27 00:27:37;;;;;;;3.47;2.33;;;;;;;13.52;100.00;102000.59;5138152;28;20031;-70
2023/09/27 00:30:09;;;;;;;3.92;2.80;;;;;;;13.47;100.00;101992.97;5140271;28;20027;-70
2023/09/27 00:32:41;;;;;;;5.85;2.92;;;;;;;13.44;100.00;101986.03;5137946;28;20101;-70
2023/09/27 00:35:18;;;;;;;4.68;2.85;;;;;;;13.42;100.00;101979.13;5140796;28;20097;-70
2023/09/27 00:37:51;;;;;;;4.53;3.42;;;;;;;13.39;100.00;101977.56;5139055;28;20019;-70
2023/09/27 00:40:23;;;;;;;6.10;3.35;;;;;;;13.38;100.00;101992.06;5140598;28;20031;-70
2023/09/27 00:42:53;;;;;;;5.07;2.53;;;;;;;13.35;100.00;101983.44;5139107;28;20085;-70
2023/09/27 00:45:24;;;;;;;5.35;2.90;;;;;;;13.32;100.00;101973.84;5137221;28;20058;-70
2023/09/27 00:47:55;;;;;;;5.72;2.75;;;;;;;13.31;100.00;101974.84;5122611;28;20484;-70
2023/09/27 00:50:26;;;;;;;3.13;2.50;;;;;;;13.28;100.00;101961.66;5140505;28;20031;-70
2023/09/27 00:52:57;;;;;;;4.30;2.75;;;;;;;13.25;100.00;101961.13;5134627;28;20391;-70
2023/09/27 00:55:27;;;;;;;7.68;2.83;;;;;;;13.20;100.00;101945.41;5135621;28;20457;-69
2023/09/27 00:57:58;;;;;;;4.90;2.70;;;;;;;13.15;100.00;101936.94;5140686;28;20027;-69
2023/09/27 01:00:29;;;;;;;3.78;2.83;;;;;;;13.08;100.00;101923.25;5140420;28;20058;-69
2023/09/27 01:03:00;;;;;;;6.10;2.67;;;;;;;13.00;100.00;101928.56;5138755;28;20042;-69
2023/09/27 01:05:31;;;;;;;5.63;4.38;;;;;;;12.99;100.00;101924.19;5138132;28;20033;-69
2023/09/27 01:08:02;;;;;;;8.32;5.07;;;;;;;13.01;100.00;101922.19;5141351;28;20849;-69
2023/09/27 01:10:33;;;;;;;7.63;4.85;;;;;;;13.10;100.00;101923.09;5138350;28;20114;-69
2023/09/27 01:13:04;;;;;;;7.65;4.15;;;;;;;13.17;100.00;101935.78;5140351;28;20109;-69
2023/09/27 01:15:35;;;;;;;7.43;5.40;;;;;;;13.18;100.00;101931.25;5137077;28;20154;-69
2023/09/27 01:18:05;;;;;;;6.82;4.15;;;;;;;13.15;100.00;101945.88;5140469;28;20030;-69
2023/09/27 01:20:36;;;;;;;7.88;5.07;;;;;;;13.15;100.00;101953.97;5137376;28;20251;-69
2023/09/27 01:23:07;;;;;;;6.40;4.10;;;;;;;13.11;100.00;101963.38;5137083;28;20035;-69
2023/09/27 01:25:39;;;;;;;6.07;3.90;;;;;;;13.09;100.00;101973.44;5135888;28;20038;-69
2023/09/27 01:28:10;;;;;;;7.35;4.00;;;;;;;13.08;100.00;101971.75;5137857;28;20057;-69
2023/09/27 01:30:41;;;;;;;7.25;4.65;;;;;;;13.04;100.00;101966.81;5135024;28;20015;-69
2023/09/27 01:33:11;;;;;;;9.27;4.72;;;;;;;12.99;100.00;101961.91;5140176;28;20033;-69
2023/09/27 01:35:43;;;;;;;6.05;4.55;;;;;;;12.97;100.00;101950.44;5136474;28;20022;-70
2023/09/27 01:38:14;;;;;;;6.05;3.95;;;;;;;12.96;100.00;101954.97;5134556;28;20039;-69
2023/09/27 01:40:45;;;;;;;9.70;4.32;;;;;;;12.94;100.00;101956.97;5134124;28;20014;-69
2023/09/27 01:43:15;;;;;;;8.68;4.38;;;;;;;12.90;100.00;101960.13;5138377;28;20034;-70
2023/09/27 01:45:46;;;;;;;7.20;4.78;;;;;;;12.85;100.00;101947.16;5139734;28;20468;-69
2023/09/27 01:48:17;;;;;;;8.70;4.88;;;;;;;12.81;100.00;101945.75;5136420;28;20442;-69
2023/09/27 01:50:48;;;;;;;6.82;4.40;;;;;;;12.81;100.00;101961.06;5136902;28;20031;-69
2023/09/27 01:53:19;;;;;;;9.55;4.93;;;;;;;12.79;100.00;101954.97;5135201;28;20555;-69
2023/09/27 01:55:49;;;;;;;8.90;6.30;;;;;;;12.77;100.00;101949.75;5140626;28;20425;-70
2023/09/27 01:58:29;;;;;;;10.32;6.00;;;;;;;12.76;100.00;101944.53;5136760;28;20031;-69
2023/09/27 02:00:59;;;;;;;8.02;5.45;;;;;;;12.76;100.00;101941.84;5140086;28;20439;-69
2023/09/27 02:03:30;;;;;;;99.00;6.63;;;;;;;12.74;100.00;101941.13;5138525;28;20033;-69
2023/09/27 02:06:01;;;;;;;5.38;3.08;;;;;;;12.70;100.00;101940.59;5138386;28;20503;-69
2023/09/27 02:08:42;;;;;;;5.53;3.85;;;;;;;12.65;100.00;101946.44;5136668;28;20089;-70
2023/09/27 02:11:14;;;;;;;6.85;3.60;;;;;;;12.65;100.00;101943.75;5143362;28;20022;-70
2023/09/27 02:13:45;;;;;;;9.93;5.32;;;;;;;12.70;100.00;101948.66;5139055;28;20046;-70
2023/09/27 02:16:15;;;;;;;6.28;4.97;;;;;;;12.70;100.00;101944.16;5139660;28;20031;-70
2023/09/27 02:18:46;;;;;;;9.77;5.43;;;;;;;12.67;100.00;101947.13;5139936;28;20039;-70
2023/09/27 02:21:17;;;;;;;7.18;4.63;;;;;;;12.64;100.00;101947.44;5137654;28;20042;-70
2023/09/27 02:23:48;;;;;;;6.80;5.10;;;;;;;12.64;100.00;101941.19;5134591;28;20023;-69
2023/09/27 02:26:18;;;;;;;10.23;5.25;;;;;;;12.65;100.00;101945.56;5140037;28;20081;-69
2023/09/27 02:28:49;;;;;;;7.60;5.32;;;;;;;12.66;100.00;101948.13;5136241;28;20031;-70
2023/09/27 02:31:20;;;;;;;8.40;5.57;;;;;;;12.67;100.00;101941.75;5137657;28;20038;-70
2023/09/27 02:33:50;;;;;;;8.43;5.63;;;;;;;12.67;100.00;101939.06;5136863;28;20018;-70
2023/09/27 02:36:21;;;;;;;8.65;5.32;;;;;;;12.65;100.00;101933.00;5139808;28;20489;-70
2023/09/27 02:38:51;;;;;;;9.32;5.05;;;;;;;12.68;100.00;101942.59;5136677;28;20027;-70
2023/09/27 02:41:22;;;;;;;17.40;7.30;;;;;;;12.75;100.00;101956.28;5139459;28;20061;-70
2023/09/27 02:43:52;;;;;;;8.70;6.05;;;;;;;12.76;100.00;101952.59;5138321;28;20029;-70
2023/09/27 02:46:23;;;;;;;8.45;5.57;;;;;;;12.75;100.00;101948.19;5133621;28;20122;-72
2023/09/27 02:48:53;;;;;;;10.73;6.30;;;;;;;12.70;100.00;101944.16;5138747;28;20034;-71
2023/09/27 02:51:24;;;;;;;9.27;5.80;;;;;;;12.68;100.00;101943.44;5135397;28;20133;-71
2023/09/27 02:53:54;;;;;;;9.68;5.90;;;;;;;12.66;100.00;101942.75;5135812;28;20039;-70
2023/09/27 02:56:25;;;;;;;8.48;5.28;;;;;;;12.66;100.00;101944.59;5135638;28;20368;-72
2023/09/27 02:58:56;;;;;;;9.45;6.28;;;;;;;12.66;100.00;101948.13;5136007;28;20093;-71
2023/09/27 03:01:26;;;;;;;11.82;6.15;;;;;;;12.68;100.00;101958.75;5136018;28;20353;-71
2023/09/27 03:03:57;;;;;;;14.27;6.53;;;;;;;12.70;100.00;101963.00;5134308;28;20158;-70
2023/09/27 03:06:27;;;;;;;10.30;6.47;;;;;;;12.71;100.00;101961.16;5137896;28;20412;-70
2023/09/27 03:08:58;;;;;;;9.45;6.20;;;;;;;12.70;100.00;101979.16;5138135;28;20662;-70
2023/09/27 03:11:28;;;;;;;14.55;7.93;;;;;;;12.72;100.00;101981.69;5140691;28;20035;-70
2023/09/27 03:13:59;;;;;;;11.68;7.78;;;;;;;12.72;100.00;101972.75;5142112;28;20077;-70
2023/09/27 03:16:30;;;;;;;10.25;6.05;;;;;;;12.62;100.00;101956.69;5140625;28;20118;-70
2023/09/27 03:19:01;;;;;;;11.85;6.65;;;;;;;12.57;100.00;101938.28;5140515;28;20407;-70
2023/09/27 03:21:31;;;;;;;7.68;5.53;;;;;;;12.51;100.00;101928.13;5141646;28;20033;-71
2023/09/27 03:24:03;;;;;;;16.88;5.97;;;;;;;12.46;100.00;101941.19;5140104;28;20073;-70
2023/09/27 03:26:33;;;;;;;8.57;6.05;;;;;;;12.45;100.00;101966.44;5139464;28;20447;-70
2023/09/27 03:29:04;;;;;;;9.82;7.22;;;;;;;12.50;100.00;101963.25;5139548;28;20015;-71
2023/09/27 03:31:35;;;;;;;10.50;7.47;;;;;;;12.44;100.00;101946.72;5141445;28;20078;-70
2023/09/27 03:34:05;;;;;;;11.73;7.35;;;;;;;12.39;100.00;101949.00;5141897;28;20030;-70
2023/09/27 03:36:35;;;;;;;9.27;6.60;;;;;;;12.39;100.00;101956.25;5140077;28;20023;-72
2023/09/27 03:39:06;;;;;;;12.65;6.97;;;;;;;12.38;100.00;101951.88;5141071;28;20031;-72
2023/09/27 03:41:36;;;;;;;8.75;5.95;;;;;;;12.37;100.00;101959.09;5141380;28;20026;-70
2023/09/27 03:44:07;;;;;;;11.48;6.70;;;;;;;12.32;100.00;101950.63;5106082;28;1132410;-70
2023/09/27 03:46:38;;;;;;;9.93;6.82;;;;;;;12.31;100.00;101950.78;5139993;28;20033;-71
2023/09/27 03:49:10;;;;;;;14.40;8.07;;;;;;;12.30;100.00;101943.69;5142336;28;20373;-71
2023/09/27 03:51:41;;;;;;;20.33;9.30;;;;;;;12.30;100.00;101947.25;5138098;28;20150;-71
2023/09/27 03:54:11;;;;;;;82.68;9.88;;;;;;;12.30;100.00;101952.63;5142575;28;20513;-71
2023/09/27 03:56:42;;;;;;;9.30;6.32;;;;;;;12.28;100.00;101948.38;5140072;28;20037;-71
2023/09/27 03:59:13;;;;;;;12.52;7.20;;;;;;;12.29;100.00;101956.31;5139120;28;20473;-71
2023/09/27 04:01:44;;;;;;;9.85;6.20;;;;;;;12.32;100.00;101966.78;5142599;28;20043;-70
2023/09/27 04:04:18;;;;;;;14.57;8.77;;;;;;;12.39;100.00;101972.41;5142336;28;20392;-70
2023/09/27 04:06:49;;;;;;;10.60;7.55;;;;;;;12.43;100.00;101979.16;5142373;28;20034;-71
2023/09/27 04:09:20;;;;;;;10.63;7.43;;;;;;;12.41;100.00;101963.19;5141991;28;20026;-70
2023/09/27 04:11:50;;;;;;;12.63;7.47;;;;;;;12.39;100.00;101959.78;5140087;28;20031;-71
2023/09/27 04:14:21;;;;;;;14.02;7.90;;;;;;;12.41;100.00;101965.03;5142185;28;20388;-70
2023/09/27 04:16:51;;;;;;;10.88;6.50;;;;;;;12.36;100.00;101964.63;5141965;28;20085;-70
2023/09/27 04:19:22;;;;;;;10.00;7.45;;;;;;;12.42;100.00;101977.47;5141931;28;20437;-71
2023/09/27 04:21:52;;;;;;;13.00;8.13;;;;;;;12.44;100.00;101962.03;5139800;28;20030;-71
2023/09/27 04:24:23;;;;;;;11.13;7.47;;;;;;;12.44;100.00;101962.88;5142160;28;20085;-71
2023/09/27 04:26:54;;;;;;;11.65;6.68;;;;;;;12.47;100.00;101964.41;5138053;28;20038;-70
2023/09/27 04:29:26;;;;;;;11.25;6.93;;;;;;;12.46;100.00;101961.88;5141778;28;20027;-71
2023/09/27 04:31:56;;;;;;;11.52;6.95;;;;;;;12.46;100.00;101969.97;5140875;28;20035;-70
2023/09/27 04:34:28;;;;;;;10.98;7.20;;;;;;;12.45;100.00;101963.75;5139921;28;20053;-71
2023/09/27 04:36:58;;;;;;;13.18;8.50;;;;;;;12.48;100.00;101976.88;5139984;28;20113;-70
2023/09/27 04:39:31;;;;;;;13.80;7.82;;;;;;;12.48;100.00;101966.09;5141374;28;20026;-72
2023/09/27 04:42:01;;;;;;;12.00;6.97;;;;;;;12.44;100.00;101954.78;5140291;28;20046;-70
2023/09/27 04:44:32;;;;;;;11.15;7.70;;;;;;;12.41;100.00;101948.88;5138679;28;20757;-70
2023/09/27 04:47:02;;;;;;;7.75;5.65;;;;;;;12.37;100.00;101951.03;5138966;28;20138;-70
2023/09/27 04:49:33;;;;;;;7.57;5.25;;;;;;;12.29;100.00;101955.47;5139543;28;20027;-70
2023/09/27 04:52:03;;;;;;;13.07;6.65;;;;;;;12.23;100.00;101950.69;5139095;28;20140;-71
2023/09/27 04:54:34;;;;;;;34.13;7.50;;;;;;;12.13;100.00;101946.19;5139319;28;20054;-71
2023/09/27 04:57:04;;;;;;;12.23;5.80;;;;;;;12.08;100.00;101951.19;5144876;28;20034;-70
2023/09/27 04:59:36;;;;;;;11.30;6.55;;;;;;;12.04;100.00;101957.84;5137004;28;20491;-70
2023/09/27 05:02:06;;;;;;;9.93;6.82;;;;;;;12.05;100.00;101970.31;5141169;28;20034;-70
2023/09/27 05:04:37;;;;;;;13.23;8.50;;;;;;;12.09;100.00;101971.69;5143515;28;20400;-70
2023/09/27 05:07:09;;;;;;;12.18;6.93;;;;;;;12.09;100.00;101971.69;5139104;28;20053;-70
2023/09/27 05:09:39;;;;;;;12.05;7.53;;;;;;;12.03;100.00;101961.53;5140474;28;20372;-70
2023/09/27 05:12:10;;;;;;;21.75;7.32;;;;;;;11.99;100.00;101957.44;5139319;28;20023;-71
2023/09/27 05:14:41;;;;;;;14.77;6.28;;;;;;;11.96;100.00;101955.06;5140755;28;20039;-70
2023/09/27 05:17:11;;;;;;;10.75;7.15;;;;;;;11.87;100.00;101961.34;5139722;28;20396;-70
2023/09/27 05:19:42;;;;;;;9.27;6.28;;;;;;;11.84;100.00;101953.56;5140887;28;20034;-71
2023/09/27 05:22:14;;;;;;;11.45;6.68;;;;;;;11.83;100.00;101949.16;5139813;28;20026;-70
2023/09/27 05:24:46;;;;;;;8.13;5.80;;;;;;;11.84;100.00;101954.41;5137385;28;20022;-70
2023/09/27 05:27:17;;;;;;;8.68;5.97;;;;;;;11.82;100.00;101944.78;5135282;28;20395;-70
2023/09/27 05:29:47;;;;;;;12.07;6.18;;;;;;;11.79;100.00;101953.97;5140099;28;20246;-70
2023/09/27 05:32:18;;;;;;;8.35;5.05;;;;;;;11.76;100.00;101943.50;5140260;28;20038;-70
2023/09/27 05:34:48;;;;;;;8.48;5.25;;;;;;;11.78;100.00;101946.88;5138244;28;20054;-70
2023/09/27 05:37:19;;;;;;;10.27;6.30;;;;;;;11.83;100.00;101943.78;5141144;28;20081;-70
2023/09/27 05:39:49;;;;;;;10.73;7.38;;;;;;;11.82;100.00;101926.81;5140110;28;20126;-70
2023/09/27 05:42:20;;;;;;;10.75;7.45;;;;;;;11.88;100.00;101922.69;5141078;28;20030;-70
2023/09/27 05:44:50;;;;;;;9.65;5.82;;;;;;;11.90;100.00;101910.81;5139513;28;20026;-70
2023/09/27 05:47:21;;;;;;;8.73;5.38;;;;;;;11.92;100.00;101930.31;5140777;28;20113;-70
2023/09/27 05:49:53;;;;;;;7.00;5.55;;;;;;;11.96;100.00;101920.13;5140087;28;20031;-70
2023/09/27 05:52:23;;;;;;;9.48;6.82;;;;;;;12.01;100.00;101915.13;5141293;28;20030;-70
2023/09/27 05:54:54;;;;;;;14.02;7.50;;;;;;;12.10;100.00;101916.09;5137486;28;20029;-70
2023/09/27 05:57:25;;;;;;;13.93;6.80;;;;;;;12.12;100.00;101911.38;5140308;28;20495;-70
2023/09/27 05:59:58;;;;;;;13.20;7.35;;;;;;;12.15;100.00;101903.03;5138352;28;20023;-70
2023/09/27 06:02:35;;;;;;;14.73;7.40;;;;;;;12.22;100.00;101900.56;5140609;28;20030;-70
2023/09/27 06:05:06;;;;;;;13.25;7.28;;;;;;;12.28;100.00;101900.81;5139373;28;20050;-70
2023/09/27 06:07:36;;;;;;;11.57;8.05;;;;;;;12.35;100.00;101899.22;5139795;28;20085;-70
2023/09/27 06:10:08;;;;;;;10.60;6.95;;;;;;;12.44;100.00;101900.13;5139948;28;20468;-70
2023/09/27 06:12:39;;;;;;;9.75;6.80;;;;;;;12.52;100.00;101902.91;5137080;28;20488;-70
2023/09/27 06:15:10;;;;;;;13.40;7.63;;;;;;;12.60;100.00;101907.50;5120845;28;20027;-70
2023/09/27 06:17:42;;;;;;;11.32;7.68;;;;;;;12.76;100.00;101920.28;5105625;28;20050;-70
2023/09/27 06:20:20;;;;;;;17.77;8.70;;;;;;;12.92;100.00;101936.59;5136601;28;20039;-70
2023/09/27 06:22:52;;;;;;;14.10;8.68;;;;;;;13.04;100.00;101940.72;5138849;28;20038;-70
2023/09/27 06:25:28;;;;;;;15.07;9.25;;;;;;;13.15;100.00;101928.84;5140367;28;20109;-70
2023/09/27 06:28:00;;;;;;;17.35;8.18;;;;;;;13.22;100.00;101927.28;5139053;28;20023;-70
2023/09/27 06:30:31;;;;;;;13.45;8.57;;;;;;;13.29;100.00;101922.94;5140280;28;20054;-70
2023/09/27 06:33:01;;;;;;;17.75;9.32;;;;;;;13.47;100.00;101937.22;5138393;28;20026;-70
2023/09/27 06:35:32;;;;;;;11.05;7.57;;;;;;;13.67;100.00;101926.22;5139196;28;20030;-71
2023/09/27 06:38:03;;;;;;;11.73;7.10;;;;;;;13.72;100.00;101922.03;5141902;28;20058;-71
2023/09/27 06:40:35;;;;;;;12.68;7.53;;;;;;;13.73;100.00;101907.53;5143731;28;20039;-71
2023/09/27 06:43:06;;;;;;;13.70;7.90;;;;;;;13.73;100.00;101907.53;5138306;28;20153;-71
2023/09/27 06:45:39;;;;;;;14.30;8.15;;;;;;;13.68;100.00;101912.56;5142354;28;20117;-71
2023/09/27 06:48:09;;;;;;;13.98;7.22;;;;;;;13.66;100.00;101914.59;5140666;28;20314;-71
2023/09/27 06:50:41;;;;;;;14.80;7.80;;;;;;;13.64;100.00;101913.88;5142925;28;20022;-71
2023/09/27 06:53:12;;;;;;;12.13;8.18;;;;;;;13.62;100.00;101921.28;5139468;28;20050;-71
2023/09/27 06:55:44;;;;;;;12.60;8.68;;;;;;;13.60;100.00;101914.34;5142090;28;20035;-71
2023/09/27 06:58:22;;;;;;;13.57;7.20;;;;;;;13.66;100.00;101936.16;5126145;28;20410;-71
2023/09/27 07:00:54;;;;;;;13.77;8.43;;;;;;;13.73;100.00;101930.97;5141636;28;20155;-71
2023/09/27 07:03:25;;;;;;;10.70;7.57;;;;;;;13.69;100.00;101925.03;5144021;28;20054;-71
2023/09/27 07:05:55;;;;;;;14.35;8.75;;;;;;;13.78;100.00;101922.38;5143126;28;20098;-71
2023/09/27 07:08:26;;;;;;;11.05;7.43;;;;;;;13.90;100.00;101929.16;5143909;28;20121;-71
2023/09/27 07:11:04;;;;;;;13.57;7.43;;;;;;;14.14;100.00;101929.28;5142113;28;20545;-71
2023/09/27 07:13:35;;;;;;;15.77;9.25;;;;;;;14.61;100.00;101920.66;5143615;28;20086;-71
2023/09/27 07:16:26;;;;;;;17.85;8.43;;;;;;;15.40;100.00;101919.09;5147473;28;20476;-72
2023/09/27 07:18:59;;;;;;;13.23;7.28;;;;;;;16.14;100.00;101929.72;5143811;28;20039;-72
2023/09/27 07:21:30;;;;;;;12.07;6.05;;;;;;;16.62;100.00;101938.59;5144734;28;20030;-72
2023/09/27 07:24:01;;;;;;;10.88;5.32;;;;;;;17.21;100.00;101947.81;5142743;28;20026;-71
2023/09/27 07:26:31;;;;;;;13.10;5.80;;;;;;;17.54;100.00;101958.34;5143172;28;20484;-71
2023/09/27 07:29:02;;;;;;;7.30;4.88;;;;;;;17.73;100.00;101957.84;5142243;28;20022;-71
2023/09/27 07:31:33;;;;;;;6.40;4.88;;;;;;;17.85;100.00;101963.66;5143414;28;20031;-71
2023/09/27 07:34:05;;;;;;;10.25;5.35;;;;;;;17.93;100.00;101954.59;5145845;28;20528;-71
2023/09/27 07:36:35;;;;;;;8.10;5.38;;;;;;;18.17;100.00;101956.13;5142521;28;20045;-71
2023/09/27 07:39:09;;;;;;;6.97;5.00;;;;;;;18.19;100.00;101957.63;5124799;28;20530;-71
2023/09/27 07:41:40;;;;;;;11.73;5.72;;;;;;;18.05;100.00;101953.06;5140661;28;20551;-71
2023/09/27 07:44:12;;;;;;;10.60;5.85;;;;;;;18.25;100.00;101956.88;5143192;28;20033;-71
2023/09/27 07:46:42;;;;;;;10.48;5.47;;;;;;;18.54;100.00;101952.41;5142219;28;20031;-71
2023/09/27 07:49:13;;;;;;;12.13;6.00;;;;;;;18.94;100.00;101952.84;5142817;28;20400;-71
2023/09/27 07:51:44;;;;;;;12.75;5.95;;;;;;;19.62;100.00;101943.16;5139472;28;20058;-72
2023/09/27 07:54:15;;;;;;;10.60;5.00;;;;;;;20.40;100.00;101946.50;5142664;28;20046;-72
2023/09/27 07:56:45;;;;;;;17.00;5.57;;;;;;;20.83;100.00;101951.66;5142333;28;20408;-72
2023/09/27 07:59:16;;;;;;;8.70;5.10;;;;;;;21.02;100.00;101958.19;5142789;28;20411;-71
2023/09/27 08:01:46;;;;;;;7.82;5.13;;;;;;;21.16;100.00;101949.78;5142506;28;20451;-71
2023/09/27 08:04:19;;;;;;;9.40;5.28;;;;;;;21.80;100.00;101945.56;5143138;28;20034;-72
2023/09/27 08:06:50;;;;;;;10.27;4.88;;;;;;;22.18;100.00;101933.88;5142330;28;20039;-72
2023/09/27 08:09:22;;;;;;;10.35;5.38;;;;;;;22.49;100.00;101938.56;5141826;28;20074;-72
2023/09/27 08:11:52;;;;;;;6.07;4.47;;;;;;;22.90;100.00;101942.78;5142381;28;20174;-72
2023/09/27 08:14:23;;;;;;;10.90;5.03;;;;;;;23.12;100.00;101935.84;5141984;28;20027;-72
2023/09/27 08:16:53;;;;;;;9.90;4.88;;;;;;;23.28;100.00;101923.50;5145429;28;20130;-72
2023/09/27 08:19:25;;;;;;;7.78;4.55;;;;;;;23.69;100.00;101922.91;5143679;28;20077;-71
2023/09/27 08:21:56;;;;;;;7.47;4.97;;;;;;;23.36;100.00;101916.91;5141625;28;20488;-72
2023/09/27 08:24:26;;;;;;;8.15;4.60;;;;;;;23.16;100.00;101928.88;5141283;28;20088;-72
2023/09/27 08:26:59;;;;;;;7.22;4.72;;;;;;;23.04;100.00;101925.16;5141777;28;20515;-72
2023/09/27 08:29:30;;;;;;;9.23;5.40;;;;;;;22.98;100.00;101924.16;5141779;28;20113;-71
2023/09/27 08:32:01;;;;;;;7.75;4.50;;;;;;;22.59;100.00;101916.22;5141326;28;20122;-72
2023/09/27 08:34:33;;;;;;;11.93;5.63;;;;;;;22.24;100.00;101922.09;5141051;28;20057;-72
2023/09/27 08:37:03;;;;;;;10.25;5.20;;;;;;;22.43;100.00;101912.94;5141239;28;20531;-72
2023/09/27 08:39:34;;;;;;;18.95;4.75;;;;;;;22.94;100.00;101914.75;5141092;28;20031;-71
2023/09/27 08:42:05;;;;;;;7.05;4.60;;;;;;;23.42;100.00;101916.00;5140728;28;20365;-72
2023/09/27 08:44:36;;;;;;;11.45;5.07;;;;;;;23.25;100.00;101919.31;5140367;28;20059;-72
2023/09/27 08:47:07;;;;;;;8.68;5.55;;;;;;;22.94;100.00;101922.97;5141457;28;20750;-72
2023/09/27 08:49:38;;;;;;;9.07;5.82;;;;;;;22.61;100.00;101925.88;5141016;28;20058;-72
2023/09/27 08:52:09;;;;;;;11.23;6.53;;;;;;;22.47;100.00;101922.38;5138163;28;20038;-72
2023/09/27 08:54:40;;;;;;;10.95;5.47;;;;;;;22.44;100.00;101916.50;5144311;28;20031;-72
2023/09/27 08:57:11;;;;;;;10.27;6.43;;;;;;;22.27;100.00;101908.00;5141332;28;20030;-72
2023/09/27 08:59:42;;;;;;;13.35;6.65;;;;;;;22.35;100.00;101910.47;5137273;28;20448;-72
2023/09/27 09:02:13;;;;;;;11.52;6.32;;;;;;;22.39;100.00;101897.19;5127381;28;20038;-72
2023/09/27 09:04:45;;;;;;;11.50;7.03;;;;;;;22.19;100.00;101900.91;5140381;28;20401;-72
2023/09/27 09:07:15;;;;;;;11.32;6.20;;;;;;;21.97;100.00;101903.03;5144328;28;20078;-72
2023/09/27 09:09:46;;;;;;;15.13;7.00;;;;;;;21.71;100.00;101905.88;5136490;28;20038;-72
2023/09/27 09:12:17;;;;;;;10.70;6.00;;;;;;;21.58;100.00;101892.25;5135623;28;20436;-72
2023/09/27 09:14:54;;;;;;;10.75;5.95;;;;;;;21.59;100.00;101893.94;5140425;28;20515;-72
2023/09/27 09:17:34;;;;;;;11.27;6.60;;;;;;;21.63;100.00;101893.28;5140661;28;20026;-72
2023/09/27 09:20:15;;;;;;;19.98;5.70;;;;;;;21.80;100.00;101892.84;5136013;28;20505;-72
2023/09/27 09:22:46;;;;;;;11.98;6.20;;;;;;;22.05;100.00;101891.03;5136601;28;20058;-72
2023/09/27 09:25:16;;;;;;;8.85;5.28;;;;;;;22.30;100.00;101891.16;5131735;28;20540;-72
2023/09/27 09:28:02;;;;;;;11.35;6.38;;;;;;;22.35;100.00;101894.06;5139975;28;20033;-72
2023/09/27 09:30:40;;;;;;;11.68;5.60;;;;;;;22.41;100.00;101885.00;5278058;27;20486;-70
2023/09/27 09:33:19;;;;;;;11.38;5.50;;;;;;;22.42;100.00;101891.28;5262288;28;20032;-70
2023/09/27 09:35:52;;;;;;;12.05;5.93;;;;;;;22.45;100.00;101879.94;5273464;28;20030;-70
2023/09/27 09:38:24;;;;;;;12.75;5.88;;;;;;;22.58;100.00;101887.19;5270963;28;20703;-70
2023/09/27 09:40:58;;;;;;;13.35;5.18;;;;;;;22.81;100.00;101884.72;5267508;28;20069;-70
2023/09/27 09:43:30;;;;;;;9.45;5.30;;;;;;;23.05;100.00;101888.56;5274349;28;20067;-70
2023/09/27 09:46:03;;;;;;;10.15;5.10;;;;;;;23.34;100.00;101891.63;5265546;28;20023;-71
2023/09/27 09:48:35;;;;;;;13.80;5.78;;;;;;;23.71;100.00;101896.13;5272772;28;20418;-70
2023/09/27 09:51:07;;;;;;;11.25;4.72;;;;;;;23.90;100.00;101877.78;5267390;28;20028;-71
2023/09/27 09:53:39;;;;;;;9.10;4.28;;;;;;;23.98;100.00;101890.31;5270455;28;20031;-70
2023/09/27 09:56:10;;;;;;;11.45;4.72;;;;;;;23.89;100.00;101878.81;5272607;28;20485;-71
2023/09/27 09:58:47;;;;;;;9.85;5.40;;;;;;;23.91;100.00;101879.44;5272128;28;20020;-71
2023/09/27 10:01:21;;;;;;;10.98;4.82;;;;;;;23.89;100.00;101875.25;5265963;28;20426;-70
2023/09/27 10:03:52;;;;;;;12.85;4.65;;;;;;;24.01;100.00;101877.00;5274837;28;20027;-71
2023/09/27 10:06:23;;;;;;;8.18;4.88;;;;;;;24.09;100.00;101875.00;5274064;28;20072;-71
2023/09/27 10:08:54;;;;;;;10.15;5.55;;;;;;;23.99;100.00;101873.63;5270193;28;20099;-71
2023/09/27 10:11:26;;;;;;;8.98;4.65;;;;;;;23.66;100.00;101878.72;5270714;28;20032;-70
2023/09/27 10:13:57;;;;;;;11.25;4.80;;;;;;;23.41;100.00;101874.09;5267234;28;20489;-71
2023/09/27 10:16:27;;;;;;;10.57;4.28;;;;;;;23.48;100.00;101868.53;5260802;28;20036;-71
2023/09/27 10:19:01;;;;;;;14.10;5.63;;;;;;;23.74;100.00;101870.16;5263300;28;20493;-71
2023/09/27 10:21:31;;;;;;;7.85;4.32;;;;;;;24.02;100.00;101886.88;5271349;28;20098;-71
2023/09/27 10:24:04;;;;;;;10.98;3.70;;;;;;;24.45;100.00;101876.84;5262323;28;20028;-71
2023/09/27 10:26:37;;;;;;;14.60;4.57;;;;;;;24.59;100.00;101872.00;5272162;28;20031;-70
2023/09/27 10:29:12;;;;;;;9.00;4.50;;;;;;;24.62;100.00;101872.38;5265407;28;20029;-71
2023/09/27 10:31:58;;;;;;;7.45;4.32;;;;;;;24.52;100.00;101866.63;5267456;28;20036;-71
2023/09/27 10:34:28;;;;;;;7.50;3.58;;;;;;;24.67;100.00;101855.19;5268266;28;20457;-70
2023/09/27 10:37:00;;;;;;;6.25;3.75;;;;;;;24.77;100.00;101845.31;5263170;28;20036;-70
2023/09/27 10:39:30;;;;;;;9.23;3.75;;;;;;;24.73;100.00;101835.03;5269523;28;20026;-71
2023/09/27 10:42:01;;;;;;;8.40;4.15;;;;;;;24.58;100.00;101830.00;5252441;28;20440;-70
2023/09/27 10:44:33;;;;;;;7.53;3.30;;;;;;;24.42;100.00;101823.31;5249677;28;20033;-71
2023/09/27 10:47:05;;;;;;;6.93;3.40;;;;;;;24.42;100.00;101826.03;5249767;28;20020;-71
2023/09/27 10:49:38;;;;;;;10.38;3.75;;;;;;;24.09;100.00;101817.44;5249177;28;20020;-70
2023/09/27 10:52:15;;;;;;;10.25;3.72;;;;;;;23.97;100.00;101812.75;5255688;28;20143;-71
2023/09/27 10:54:46;;;;;;;8.00;3.63;;;;;;;24.03;100.00;101803.59;5256374;28;20396;-70
2023/09/27 10:57:21;;;;;;;8.88;3.70;;;;;;;23.96;100.00;101789.16;5253711;28;20017;-71
2023/09/27 10:59:52;;;;;;;7.78;3.97;;;;;;;23.86;100.00;101794.34;5258346;28;20039;-70
2023/09/27 11:02:36;;;;;;;6.38;3.72;;;;;;;23.66;100.00;101797.38;5251345;28;20560;-71
2023/09/27 11:05:07;;;;;;;6.13;2.70;;;;;;;23.62;100.00;101795.28;5252168;28;20469;-70
2023/09/27 11:07:45;;;;;;;5.85;3.40;;;;;;;23.56;100.00;101788.81;5252190;28;20039;-70
2023/09/27 11:10:31;;;;;;;8.00;4.00;;;;;;;23.46;100.00;101789.34;5254056;28;20539;-71
2023/09/27 11:13:06;;;;;;;6.65;3.53;;;;;;;23.38;100.00;101780.59;5251268;28;20117;-70
2023/09/27 11:15:37;;;;;;;;;;;;;;;23.39;100.00;101779.53;5253923;28;20039;-70
2023/09/27 11:18:08;;;;;;;8.07;3.80;;;;;;;23.44;100.00;101775.03;5251487;28;20305;-71
2023/09/27 11:20:39;;;;;;;9.10;4.05;;;;;;;23.37;100.00;101768.81;5252808;28;20032;-71
2023/09/27 11:23:10;;;;;;;8.00;3.92;;;;;;;23.40;100.00;101759.31;5251819;28;20029;-71
2023/09/27 11:25:42;;;;;;;5.30;3.20;;;;;;;23.42;100.00;101759.91;5259062;28;20088;-71
2023/09/27 11:28:15;;;;;;;6.85;3.63;;;;;;;23.50;100.00;101749.50;5249698;28;20028;-71
2023/09/27 11:30:55;;;;;;;9.35;3.22;;;;;;;23.62;100.00;101740.50;5254853;28;20043;-71
2023/09/27 11:33:32;;;;;;;7.38;3.22;;;;;;;23.92;100.00;101740.53;5251407;28;20032;-71
2023/09/27 11:36:05;;;;;;;6.07;2.65;;;;;;;23.91;100.00;101736.94;5251145;28;20032;-71